Seihou Maru — JM6496 — position and weather

sailwx.info

Track history (hours):
 
Tides and Currents Weather Stations Pressure Air Temp Water Temp Dewpoint Dewpoint Depression Visibility Wind Speed Wind Dir Waves Ship Positions

Seihou Maru

Last reported at 2018-Jan-23 11:29 UTC. Time now 2018-Jan-23 11:59 UTC.
Position N 35°33' E 140°05'.

Length 71 m; draft 4.5 m.

Type: Tanker. MMSI: 431400523.

Date/timePositionNaut miles runAvg speedWind from/ knotsBaromVisibWave heightAir tempDewpointWater temp
2018-Jan-23 11:29N 35°33' E 140°05'0 0.1
2018-Jan-23 10:59N 35°33' E 140°05'0 0.0
2018-Jan-23 10:26N 35°33' E 140°05'0 0.0
2018-Jan-23 09:56N 35°33' E 140°05'0 0.0
2018-Jan-23 09:29N 35°33' E 140°05'0 0.0
2018-Jan-23 08:59N 35°33' E 140°05'0 0.0
2018-Jan-23 08:26N 35°33' E 140°05'0 0.0
2018-Jan-23 07:56N 35°33' E 140°05'0 0.5
2018-Jan-23 07:31N 35°34' E 140°05'510.0
2018-Jan-23 07:00N 35°37' E 140°00'4 8.6
2018-Jan-23 06:29N 35°40' E 139°57'0 0.0
2018-Jan-23 05:58N 35°40' E 139°57'0 0.0
2018-Jan-23 05:16N 35°40' E 139°57'0 0.1
2018-Jan-23 04:05N 35°40' E 139°57'0 1.6
2018-Jan-23 04:00N 35°40' E 139°57'5 9.5
2018-Jan-23 03:30N 35°36' E 139°59'611.3
2018-Jan-23 03:00N 35°31' E 140°02'0 0.4
2018-Jan-23 02:29N 35°31' E 140°02'0 0.0
2018-Jan-23 02:00N 35°31' E 140°02'0 0.0
2018-Jan-23 01:30N 35°31' E 140°02'0 0.0
2018-Jan-23 01:00N 35°31' E 140°02'0 0.0
2018-Jan-23 00:30N 35°31' E 140°02'0 0.0
2018-Jan-23 00:00N 35°31' E 140°02'0 0.0
2018-Jan-22 23:30N 35°31' E 140°02'1 2.0
2018-Jan-22 23:00N 35°31' E 140°01'5 9.6
2018-Jan-22 22:30N 35°30' E 139°56'0 0.8
2018-Jan-22 21:58N 35°29' E 139°55'0 0.0
2018-Jan-22 21:28N 35°29' E 139°55'0 0.1
2018-Jan-22 20:58N 35°29' E 139°55'0 0.0
2018-Jan-22 20:22N 35°29' E 139°55'0 0.0
2018-Jan-22 19:43N 35°29' E 139°55'0 0.0
2018-Jan-22 19:28N 35°29' E 139°55'0 0.0
2018-Jan-22 18:55N 35°29' E 139°55'0 0.0
2018-Jan-22 18:19N 35°29' E 139°55'0 0.0
2018-Jan-22 17:58N 35°29' E 139°55'0 0.0
2018-Jan-22 17:28N 35°29' E 139°55'0 0.0
2018-Jan-22 16:58N 35°29' E 139°55'0 0.0
2018-Jan-22 16:28N 35°29' E 139°55'2 3.5
2018-Jan-22 16:00N 35°29' E 139°53'612.0
2018-Jan-22 15:30N 35°25' E 139°47'611.6
2018-Jan-22 15:00N 35°20' E 139°44'510.7
2018-Jan-22 14:30N 35°15' E 139°47'611.1
2018-Jan-22 14:00N 35°09' E 139°47'510.0
2018-Jan-22 13:30N 35°04' E 139°45'510.2
2018-Jan-22 13:00N 35°01' E 139°40'4 7.3
2018-Jan-22 12:30N 34°59' E 139°37'5 5.4
2018-Jan-22 11:31N 34°56' E 139°31'0 4.6
2018-Jan-22 11:28N 34°56' E 139°31'3 4.5
2018-Jan-22 10:52N 34°54' E 139°28'2 4.8
2018-Jan-22 10:30N 34°53' E 139°27'3 5.4
2018-Jan-22 09:58N 34°52' E 139°24'3 5.5
2018-Jan-22 09:28N 34°50' E 139°21'3 5.6
2018-Jan-22 09:00N 34°49' E 139°18'3 5.3
2018-Jan-22 08:29N 34°47' E 139°16'3 4.7
2018-Jan-22 07:51N 34°45' E 139°13'2 6.7
2018-Jan-22 07:29N 34°44' E 139°10'4 7.2
2018-Jan-22 06:59N 34°42' E 139°07'4 7.9
2018-Jan-22 06:30N 34°39' E 139°03'5 9.6
2018-Jan-22 06:00N 34°37' E 138°59'610.7
2018-Jan-22 05:26N 34°35' E 138°51'612.2
2018-Jan-22 04:57N 34°37' E 138°44'613.1
2018-Jan-22 04:30N 34°43' E 138°42'713.2
2018-Jan-22 04:00N 34°49' E 138°39'613.2
2018-Jan-22 03:30N 34°55' E 138°36'612.8
2018-Jan-22 03:00N 35°01' E 138°33'2 4.7
2018-Jan-22 02:29N 35°02' E 138°30'0 0.0
2018-Jan-22 01:59N 35°02' E 138°30'0 0.0
2018-Jan-22 01:29N 35°02' E 138°30'0 0.0
2018-Jan-22 00:59N 35°02' E 138°30'0 0.0
2018-Jan-22 00:29N 35°02' E 138°30'0 0.0
2018-Jan-21 23:59N 35°02' E 138°30'0 0.0
2018-Jan-21 23:31N 35°02' E 138°30'1 1.1
2018-Jan-21 23:01N 35°02' E 138°30'0 0.1
2018-Jan-21 22:30N 35°02' E 138°30'0 0.0
2018-Jan-21 22:01N 35°02' E 138°30'0 0.0
2018-Jan-21 21:30N 35°02' E 138°30'0 0.0
2018-Jan-21 21:00N 35°02' E 138°30'0 0.0
2018-Jan-21 20:30N 35°02' E 138°30'0 0.0
2018-Jan-21 20:00N 35°02' E 138°30'0 0.0
2018-Jan-21 19:30N 35°02' E 138°30'0 0.0
2018-Jan-21 19:01N 35°02' E 138°30'0 0.0
2018-Jan-21 18:29N 35°02' E 138°30'0 0.0
2018-Jan-21 18:00N 35°02' E 138°30'0 0.1
2018-Jan-21 17:30N 35°02' E 138°30'0 0.0
2018-Jan-21 17:00N 35°02' E 138°30'0 0.0
2018-Jan-21 16:30N 35°02' E 138°30'3 6.9
2018-Jan-21 16:00N 35°00' E 138°34'713.1
2018-Jan-21 15:30N 34°54' E 138°37'713.1
2018-Jan-21 15:00N 34°48' E 138°40'612.8
2018-Jan-21 14:30N 34°42' E 138°43'611.8
2018-Jan-21 13:58N 34°36' E 138°47'511.3
2018-Jan-21 13:29N 34°35' E 138°53'510.3
2018-Jan-21 12:57N 34°38' E 138°59'512.0
2018-Jan-21 12:30N 34°42' E 139°03'612.3
2018-Jan-21 12:00N 34°47' E 139°08'612.1
2018-Jan-21 11:30N 34°51' E 139°12'712.3
2018-Jan-21 10:56N 34°57' E 139°18'612.6
2018-Jan-21 10:30N 34°59' E 139°24'612.6
2018-Jan-21 10:00N 35°02' E 139°30'612.7
2018-Jan-21 09:30N 35°05' E 139°37'612.8
2018-Jan-21 09:00N 35°09' E 139°43'612.4
2018-Jan-21 08:31N 35°15' E 139°46'612.4
2018-Jan-21 08:01N 35°20' E 139°43'611.7
2018-Jan-21 07:30N 35°26' E 139°45'612.7
2018-Jan-21 07:01N 35°29' E 139°51'612.7
2018-Jan-21 06:30N 35°30' E 139°59'3 5.0
2018-Jan-21 05:58N 35°30' E 140°02'0 0.0
2018-Jan-21 05:19N 35°30' E 140°02'0 0.0
2018-Jan-21 04:58N 35°30' E 140°02'0 0.0
2018-Jan-21 04:25N 35°30' E 140°02'0 0.0
2018-Jan-21 03:58N 35°30' E 140°02'0 0.0
2018-Jan-21 03:28N 35°30' E 140°02'0 0.0
2018-Jan-21 02:58N 35°30' E 140°02'0 0.0
2018-Jan-21 02:28N 35°30' E 140°02'0 0.0
2018-Jan-21 01:58N 35°30' E 140°02'0 0.0
2018-Jan-21 01:25N 35°30' E 140°02'0 0.0
2018-Jan-21 00:52N 35°30' E 140°02'0 0.0
2018-Jan-21 00:28N 35°30' E 140°02'0 0.0
2018-Jan-20 23:58N 35°30' E 140°02'0 0.0
2018-Jan-20 23:25N 35°30' E 140°02'1 3.0
2018-Jan-20 23:00N 35°30' E 140°01'0 0.6
2018-Jan-20 22:26N 35°30' E 140°00'0 0.5
2018-Jan-20 21:56N 35°30' E 140°00'0 0.0
2018-Jan-20 21:29N 35°30' E 140°00'0 0.0
2018-Jan-20 20:56N 35°30' E 140°00'0 0.0
2018-Jan-20 19:59N 35°30' E 140°00'0 0.0
2018-Jan-20 19:26N 35°30' E 140°00'0 0.0
2018-Jan-20 18:56N 35°30' E 140°00'0 0.0
2018-Jan-20 18:26N 35°30' E 140°00'0 0.0
2018-Jan-20 17:59N 35°30' E 140°00'0 0.0
2018-Jan-20 17:26N 35°30' E 140°00'0 0.0
2018-Jan-20 16:56N 35°30' E 140°00'0 0.0
2018-Jan-20 16:26N 35°30' E 140°00'0 0.0
2018-Jan-20 15:59N 35°30' E 140°00'0 0.1
2018-Jan-20 15:29N 35°30' E 140°00'0 0.0
2018-Jan-20 14:59N 35°30' E 140°00'0 0.0
2018-Jan-20 14:29N 35°30' E 140°00'0 0.0
2018-Jan-20 13:59N 35°30' E 140°00'0 0.0
2018-Jan-20 13:29N 35°30' E 140°00'0 0.0
2018-Jan-20 12:44N 35°30' E 140°00'0 0.0
2018-Jan-20 12:29N 35°30' E 140°00'0 0.0
2018-Jan-20 11:53N 35°30' E 140°00'0 0.0
2018-Jan-20 11:26N 35°30' E 140°00'0 0.0
2018-Jan-20 10:59N 35°30' E 140°00'0 0.0
2018-Jan-20 10:29N 35°30' E 140°00'0 0.0
2018-Jan-20 09:59N 35°30' E 140°00'0 0.7
2018-Jan-20 09:31N 35°30' E 140°00'611.3
2018-Jan-20 09:00N 35°36' E 139°59'5 1.6
2018-Jan-20 05:58N 35°40' E 139°57'1 1.6
2018-Jan-20 05:27N 35°40' E 139°58'511.7
2018-Jan-20 05:00N 35°35' E 139°59'5 8.0
2018-Jan-20 04:20N 35°30' E 140°02'0 0.0
2018-Jan-20 03:56N 35°30' E 140°02'0 0.0
2018-Jan-20 02:50N 35°30' E 140°02'0 0.0
2018-Jan-20 02:11N 35°30' E 140°02'0 0.0
2018-Jan-20 01:59N 35°30' E 140°02'0 0.0
2018-Jan-20 01:29N 35°30' E 140°02'0 0.0
2018-Jan-20 00:38N 35°30' E 140°02'0 0.0
2018-Jan-20 00:30N 35°30' E 140°02'0 0.0
2018-Jan-20 00:00N 35°30' E 140°02'0 0.0
2018-Jan-19 23:30N 35°30' E 140°02'0 0.0
2018-Jan-19 23:00N 35°30' E 140°02'0 0.0
2018-Jan-19 22:26N 35°30' E 140°02'0 0.4
2018-Jan-19 21:59N 35°30' E 140°02'2 3.3
2018-Jan-19 21:30N 35°31' E 140°00'3 5.9
2018-Jan-19 20:59N 35°30' E 139°57'1 2.4
2018-Jan-19 20:28N 35°29' E 139°55'0 0.0
2018-Jan-19 19:58N 35°29' E 139°55'0 0.0
2018-Jan-19 19:28N 35°29' E 139°55'0 0.0
2018-Jan-19 18:58N 35°29' E 139°55'0 0.0
2018-Jan-19 18:28N 35°29' E 139°55'0 0.0
2018-Jan-19 17:55N 35°29' E 139°55'0 0.1
2018-Jan-19 17:25N 35°29' E 139°55'0 0.0
2018-Jan-19 16:55N 35°29' E 139°55'0 0.0
2018-Jan-19 16:28N 35°29' E 139°55'0 0.0
2018-Jan-19 15:58N 35°29' E 139°55'0 0.0
2018-Jan-19 15:28N 35°29' E 139°55'0 0.0
2018-Jan-19 14:58N 35°29' E 139°55'0 0.0
2018-Jan-19 14:28N 35°29' E 139°55'0 0.0
2018-Jan-19 13:58N 35°29' E 139°55'0 0.0
2018-Jan-19 13:22N 35°29' E 139°55'0 0.0
2018-Jan-19 12:55N 35°29' E 139°55'0 0.0
2018-Jan-19 12:28N 35°29' E 139°55'0 0.1
2018-Jan-19 11:59N 35°29' E 139°55'5 9.9
2018-Jan-19 11:31N 35°27' E 139°50'612.1
2018-Jan-19 11:00N 35°22' E 139°45'510.7
2018-Jan-19 10:30N 35°17' E 139°45'611.9
2018-Jan-19 10:00N 35°11' E 139°46'612.5
2018-Jan-19 09:30N 35°06' E 139°42'713.1
2018-Jan-19 09:00N 35°02' E 139°36'713.3
2018-Jan-19 08:30N 34°57' E 139°30'713.7
2018-Jan-19 07:58N 34°52' E 139°24'813.7
2018-Jan-19 07:23N 34°47' E 139°16'613.4
2018-Jan-19 06:58N 34°44' E 139°10'713.6
2018-Jan-19 06:26N 34°40' E 139°03'612.7
2018-Jan-19 05:59N 34°36' E 138°57'612.2
2018-Jan-19 05:28N 34°35' E 138°50'611.8
2018-Jan-19 04:59N 34°38' E 138°44'612.1
2018-Jan-19 04:30N 34°44' E 138°41'613.0
2018-Jan-19 04:00N 34°50' E 138°39'713.1
2018-Jan-19 03:30N 34°56' E 138°36'612.7
2018-Jan-19 03:00N 35°01' E 138°32'2 3.7
2018-Jan-19 02:30N 35°02' E 138°30'0 0.0
2018-Jan-19 02:00N 35°02' E 138°30'0 0.0
2018-Jan-19 01:30N 35°02' E 138°30'0 0.0
2018-Jan-19 01:00N 35°02' E 138°30'0 0.0
2018-Jan-19 00:30N 35°02' E 138°30'0 0.0
2018-Jan-19 00:00N 35°02' E 138°30'0 0.0
2018-Jan-18 23:30N 35°02' E 138°30'1 1.4
2018-Jan-18 23:00N 35°02' E 138°31'1 1.9
2018-Jan-18 22:30N 35°02' E 138°32'0 0.0
2018-Jan-18 22:00N 35°02' E 138°32'0 0.0
2018-Jan-18 21:30N 35°02' E 138°32'0 0.0
2018-Jan-18 21:00N 35°02' E 138°32'0 0.0
2018-Jan-18 20:30N 35°02' E 138°32'0 0.2
2018-Jan-18 20:00N 35°02' E 138°32'5 9.3
2018-Jan-18 19:30N 34°58' E 138°35'712.6
2018-Jan-18 18:59N 34°52' E 138°38'713.0
2018-Jan-18 18:28N 34°46' E 138°41'612.8
2018-Jan-18 18:00N 34°40' E 138°43'612.0
2018-Jan-18 17:29N 34°36' E 138°48'611.7
2018-Jan-18 17:00N 34°36' E 138°55'611.9
2018-Jan-18 16:27N 34°40' E 139°01'712.3
2018-Jan-18 15:51N 34°46' E 139°07'711.9
2018-Jan-18 15:17N 34°51' E 139°12'412.5
2018-Jan-18 15:00N 34°54' E 139°14'612.1
2018-Jan-18 14:30N 34°58' E 139°20'611.7
2018-Jan-18 14:00N 35°01' E 139°26'611.8
2018-Jan-18 13:30N 35°03' E 139°33'612.1
2018-Jan-18 13:00N 35°06' E 139°39'612.4
2018-Jan-18 12:30N 35°10' E 139°44'611.6
2018-Jan-18 12:00N 35°16' E 139°46'713.6
2018-Jan-18 11:30N 35°22' E 139°42'612.7
2018-Jan-18 11:00N 35°27' E 139°47'713.2
2018-Jan-18 10:28N 35°31' E 139°54'511.5
2018-Jan-18 10:00N 35°30' E 140°01'1 1.2
2018-Jan-18 09:03N 35°30' E 140°02'0 0.0
2018-Jan-18 05:09N 35°30' E 140°02'0 0.0
2018-Jan-18 04:45N 35°30' E 140°02'0 0.0
2018-Jan-18 04:24N 35°30' E 140°02'0 0.0
2018-Jan-18 03:57N 35°30' E 140°02'0 0.0
2018-Jan-18 03:21N 35°30' E 140°02'2 4.9
2018-Jan-18 03:00N 35°31' E 140°00'5 9.5
2018-Jan-18 02:30N 35°35' E 139°59'5 9.0
2018-Jan-18 01:54N 35°40' E 139°57'0 0.0
2018-Jan-18 01:29N 35°40' E 139°57'0 0.0
2018-Jan-18 00:55N 35°40' E 139°57'0 0.0
2018-Jan-17 23:43N 35°40' E 139°57'  
Track history (hours):
 
Tides and Currents Weather Stations Pressure Air Temp Water Temp Dewpoint Dewpoint Depression Visibility Wind Speed Wind Dir Waves Ship Positions

Seihou Maru

Last reported at 2018-Jan-23 11:29 UTC. Time now 2018-Jan-23 11:59 UTC.
Position N 35°33' E 140°05'.

Length 71 m; draft 4.5 m.

Type: Tanker. MMSI: 431400523.

Date/timePositionNaut miles runAvg speedWind from/ knotsBaromVisibWave heightAir tempDewpointWater temp
2018-Jan-23 11:29N 35°33' E 140°05'0 0.1
2018-Jan-23 10:59N 35°33' E 140°05'0 0.0
2018-Jan-23 10:26N 35°33' E 140°05'0 0.0
2018-Jan-23 09:56N 35°33' E 140°05'0 0.0
2018-Jan-23 09:29N 35°33' E 140°05'0 0.0
2018-Jan-23 08:59N 35°33' E 140°05'0 0.0
2018-Jan-23 08:26N 35°33' E 140°05'0 0.0
2018-Jan-23 07:56N 35°33' E 140°05'0 0.5
2018-Jan-23 07:31N 35°34' E 140°05'510.0
2018-Jan-23 07:00N 35°37' E 140°00'4 8.6
2018-Jan-23 06:29N 35°40' E 139°57'0 0.0
2018-Jan-23 05:58N 35°40' E 139°57'0 0.0
2018-Jan-23 05:16N 35°40' E 139°57'0 0.1
2018-Jan-23 04:05N 35°40' E 139°57'0 1.6
2018-Jan-23 04:00N 35°40' E 139°57'5 9.5
2018-Jan-23 03:30N 35°36' E 139°59'611.3
2018-Jan-23 03:00N 35°31' E 140°02'0 0.4
2018-Jan-23 02:29N 35°31' E 140°02'0 0.0
2018-Jan-23 02:00N 35°31' E 140°02'0 0.0
2018-Jan-23 01:30N 35°31' E 140°02'0 0.0
2018-Jan-23 01:00N 35°31' E 140°02'0 0.0
2018-Jan-23 00:30N 35°31' E 140°02'0 0.0
2018-Jan-23 00:00N 35°31' E 140°02'0 0.0
2018-Jan-22 23:30N 35°31' E 140°02'1 2.0
2018-Jan-22 23:00N 35°31' E 140°01'5 9.6
2018-Jan-22 22:30N 35°30' E 139°56'0 0.8
2018-Jan-22 21:58N 35°29' E 139°55'0 0.0
2018-Jan-22 21:28N 35°29' E 139°55'0 0.1
2018-Jan-22 20:58N 35°29' E 139°55'0 0.0
2018-Jan-22 20:22N 35°29' E 139°55'0 0.0
2018-Jan-22 19:43N 35°29' E 139°55'0 0.0
2018-Jan-22 19:28N 35°29' E 139°55'0 0.0
2018-Jan-22 18:55N 35°29' E 139°55'0 0.0
2018-Jan-22 18:19N 35°29' E 139°55'0 0.0
2018-Jan-22 17:58N 35°29' E 139°55'0 0.0
2018-Jan-22 17:28N 35°29' E 139°55'0 0.0
2018-Jan-22 16:58N 35°29' E 139°55'0 0.0
2018-Jan-22 16:28N 35°29' E 139°55'2 3.5
2018-Jan-22 16:00N 35°29' E 139°53'612.0
2018-Jan-22 15:30N 35°25' E 139°47'611.6
2018-Jan-22 15:00N 35°20' E 139°44'510.7
2018-Jan-22 14:30N 35°15' E 139°47'611.1
2018-Jan-22 14:00N 35°09' E 139°47'510.0
2018-Jan-22 13:30N 35°04' E 139°45'510.2
2018-Jan-22 13:00N 35°01' E 139°40'4 7.3
2018-Jan-22 12:30N 34°59' E 139°37'5 5.4
2018-Jan-22 11:31N 34°56' E 139°31'0 4.6
2018-Jan-22 11:28N 34°56' E 139°31'3 4.5
2018-Jan-22 10:52N 34°54' E 139°28'2 4.8
2018-Jan-22 10:30N 34°53' E 139°27'3 5.4
2018-Jan-22 09:58N 34°52' E 139°24'3 5.5
2018-Jan-22 09:28N 34°50' E 139°21'3 5.6
2018-Jan-22 09:00N 34°49' E 139°18'3 5.3
2018-Jan-22 08:29N 34°47' E 139°16'3 4.7
2018-Jan-22 07:51N 34°45' E 139°13'2 6.7
2018-Jan-22 07:29N 34°44' E 139°10'4 7.2
2018-Jan-22 06:59N 34°42' E 139°07'4 7.9
2018-Jan-22 06:30N 34°39' E 139°03'5 9.6
2018-Jan-22 06:00N 34°37' E 138°59'610.7
2018-Jan-22 05:26N 34°35' E 138°51'612.2
2018-Jan-22 04:57N 34°37' E 138°44'613.1
2018-Jan-22 04:30N 34°43' E 138°42'713.2
2018-Jan-22 04:00N 34°49' E 138°39'613.2
2018-Jan-22 03:30N 34°55' E 138°36'612.8
2018-Jan-22 03:00N 35°01' E 138°33'2 4.7
2018-Jan-22 02:29N 35°02' E 138°30'0 0.0
2018-Jan-22 01:59N 35°02' E 138°30'0 0.0
2018-Jan-22 01:29N 35°02' E 138°30'0 0.0
2018-Jan-22 00:59N 35°02' E 138°30'0 0.0
2018-Jan-22 00:29N 35°02' E 138°30'0 0.0
2018-Jan-21 23:59N 35°02' E 138°30'0 0.0
2018-Jan-21 23:31N 35°02' E 138°30'1 1.1
2018-Jan-21 23:01N 35°02' E 138°30'0 0.1
2018-Jan-21 22:30N 35°02' E 138°30'0 0.0
2018-Jan-21 22:01N 35°02' E 138°30'0 0.0
2018-Jan-21 21:30N 35°02' E 138°30'0 0.0
2018-Jan-21 21:00N 35°02' E 138°30'0 0.0
2018-Jan-21 20:30N 35°02' E 138°30'0 0.0
2018-Jan-21 20:00N 35°02' E 138°30'0 0.0
2018-Jan-21 19:30N 35°02' E 138°30'0 0.0
2018-Jan-21 19:01N 35°02' E 138°30'0 0.0
2018-Jan-21 18:29N 35°02' E 138°30'0 0.0
2018-Jan-21 18:00N 35°02' E 138°30'0 0.1
2018-Jan-21 17:30N 35°02' E 138°30'0 0.0
2018-Jan-21 17:00N 35°02' E 138°30'0 0.0
2018-Jan-21 16:30N 35°02' E 138°30'3 6.9
2018-Jan-21 16:00N 35°00' E 138°34'713.1
2018-Jan-21 15:30N 34°54' E 138°37'713.1
2018-Jan-21 15:00N 34°48' E 138°40'612.8
2018-Jan-21 14:30N 34°42' E 138°43'611.8
2018-Jan-21 13:58N 34°36' E 138°47'511.3
2018-Jan-21 13:29N 34°35' E 138°53'510.3
2018-Jan-21 12:57N 34°38' E 138°59'512.0
2018-Jan-21 12:30N 34°42' E 139°03'612.3
2018-Jan-21 12:00N 34°47' E 139°08'612.1
2018-Jan-21 11:30N 34°51' E 139°12'712.3
2018-Jan-21 10:56N 34°57' E 139°18'612.6
2018-Jan-21 10:30N 34°59' E 139°24'612.6
2018-Jan-21 10:00N 35°02' E 139°30'612.7
2018-Jan-21 09:30N 35°05' E 139°37'612.8
2018-Jan-21 09:00N 35°09' E 139°43'612.4
2018-Jan-21 08:31N 35°15' E 139°46'612.4
2018-Jan-21 08:01N 35°20' E 139°43'611.7
2018-Jan-21 07:30N 35°26' E 139°45'612.7
2018-Jan-21 07:01N 35°29' E 139°51'612.7
2018-Jan-21 06:30N 35°30' E 139°59'3 5.0
2018-Jan-21 05:58N 35°30' E 140°02'0 0.0
2018-Jan-21 05:19N 35°30' E 140°02'0 0.0
2018-Jan-21 04:58N 35°30' E 140°02'0 0.0
2018-Jan-21 04:25N 35°30' E 140°02'0 0.0
2018-Jan-21 03:58N 35°30' E 140°02'0 0.0
2018-Jan-21 03:28N 35°30' E 140°02'0 0.0
2018-Jan-21 02:58N 35°30' E 140°02'0 0.0
2018-Jan-21 02:28N 35°30' E 140°02'0 0.0
2018-Jan-21 01:58N 35°30' E 140°02'0 0.0
2018-Jan-21 01:25N 35°30' E 140°02'0 0.0
2018-Jan-21 00:52N 35°30' E 140°02'0 0.0
2018-Jan-21 00:28N 35°30' E 140°02'0 0.0
2018-Jan-20 23:58N 35°30' E 140°02'0 0.0
2018-Jan-20 23:25N 35°30' E 140°02'1 3.0
2018-Jan-20 23:00N 35°30' E 140°01'0 0.6
2018-Jan-20 22:26N 35°30' E 140°00'0 0.5
2018-Jan-20 21:56N 35°30' E 140°00'0 0.0
2018-Jan-20 21:29N 35°30' E 140°00'0 0.0
2018-Jan-20 20:56N 35°30' E 140°00'0 0.0
2018-Jan-20 19:59N 35°30' E 140°00'0 0.0
2018-Jan-20 19:26N 35°30' E 140°00'0 0.0
2018-Jan-20 18:56N 35°30' E 140°00'0 0.0
2018-Jan-20 18:26N 35°30' E 140°00'0 0.0
2018-Jan-20 17:59N 35°30' E 140°00'0 0.0
2018-Jan-20 17:26N 35°30' E 140°00'0 0.0
2018-Jan-20 16:56N 35°30' E 140°00'0 0.0
2018-Jan-20 16:26N 35°30' E 140°00'0 0.0
2018-Jan-20 15:59N 35°30' E 140°00'0 0.1
2018-Jan-20 15:29N 35°30' E 140°00'0 0.0
2018-Jan-20 14:59N 35°30' E 140°00'0 0.0
2018-Jan-20 14:29N 35°30' E 140°00'0 0.0
2018-Jan-20 13:59N 35°30' E 140°00'0 0.0
2018-Jan-20 13:29N 35°30' E 140°00'0 0.0
2018-Jan-20 12:44N 35°30' E 140°00'0 0.0
2018-Jan-20 12:29N 35°30' E 140°00'0 0.0
2018-Jan-20 11:53N 35°30' E 140°00'0 0.0
2018-Jan-20 11:26N 35°30' E 140°00'0 0.0
2018-Jan-20 10:59N 35°30' E 140°00'0 0.0
2018-Jan-20 10:29N 35°30' E 140°00'0 0.0
2018-Jan-20 09:59N 35°30' E 140°00'0 0.7
2018-Jan-20 09:31N 35°30' E 140°00'611.3
2018-Jan-20 09:00N 35°36' E 139°59'5 1.6
2018-Jan-20 05:58N 35°40' E 139°57'1 1.6
2018-Jan-20 05:27N 35°40' E 139°58'511.7
2018-Jan-20 05:00N 35°35' E 139°59'5 8.0
2018-Jan-20 04:20N 35°30' E 140°02'0 0.0
2018-Jan-20 03:56N 35°30' E 140°02'0 0.0
2018-Jan-20 02:50N 35°30' E 140°02'0 0.0
2018-Jan-20 02:11N 35°30' E 140°02'0 0.0
2018-Jan-20 01:59N 35°30' E 140°02'0 0.0
2018-Jan-20 01:29N 35°30' E 140°02'0 0.0
2018-Jan-20 00:38N 35°30' E 140°02'0 0.0
2018-Jan-20 00:30N 35°30' E 140°02'0 0.0
2018-Jan-20 00:00N 35°30' E 140°02'0 0.0
2018-Jan-19 23:30N 35°30' E 140°02'0 0.0
2018-Jan-19 23:00N 35°30' E 140°02'0 0.0
2018-Jan-19 22:26N 35°30' E 140°02'0 0.4
2018-Jan-19 21:59N 35°30' E 140°02'2 3.3
2018-Jan-19 21:30N 35°31' E 140°00'3 5.9
2018-Jan-19 20:59N 35°30' E 139°57'1 2.4
2018-Jan-19 20:28N 35°29' E 139°55'0 0.0
2018-Jan-19 19:58N 35°29' E 139°55'0 0.0
2018-Jan-19 19:28N 35°29' E 139°55'0 0.0
2018-Jan-19 18:58N 35°29' E 139°55'0 0.0
2018-Jan-19 18:28N 35°29' E 139°55'0 0.0
2018-Jan-19 17:55N 35°29' E 139°55'0 0.1
2018-Jan-19 17:25N 35°29' E 139°55'0 0.0
2018-Jan-19 16:55N 35°29' E 139°55'0 0.0
2018-Jan-19 16:28N 35°29' E 139°55'0 0.0
2018-Jan-19 15:58N 35°29' E 139°55'0 0.0
2018-Jan-19 15:28N 35°29' E 139°55'0 0.0
2018-Jan-19 14:58N 35°29' E 139°55'0 0.0
2018-Jan-19 14:28N 35°29' E 139°55'0 0.0
2018-Jan-19 13:58N 35°29' E 139°55'0 0.0
2018-Jan-19 13:22N 35°29' E 139°55'0 0.0
2018-Jan-19 12:55N 35°29' E 139°55'0 0.0
2018-Jan-19 12:28N 35°29' E 139°55'0 0.1
2018-Jan-19 11:59N 35°29' E 139°55'5 9.9
2018-Jan-19 11:31N 35°27' E 139°50'612.1
2018-Jan-19 11:00N 35°22' E 139°45'510.7
2018-Jan-19 10:30N 35°17' E 139°45'611.9
2018-Jan-19 10:00N 35°11' E 139°46'612.5
2018-Jan-19 09:30N 35°06' E 139°42'713.1
2018-Jan-19 09:00N 35°02' E 139°36'713.3
2018-Jan-19 08:30N 34°57' E 139°30'713.7
2018-Jan-19 07:58N 34°52' E 139°24'813.7
2018-Jan-19 07:23N 34°47' E 139°16'613.4
2018-Jan-19 06:58N 34°44' E 139°10'713.6
2018-Jan-19 06:26N 34°40' E 139°03'612.7
2018-Jan-19 05:59N 34°36' E 138°57'612.2
2018-Jan-19 05:28N 34°35' E 138°50'611.8
2018-Jan-19 04:59N 34°38' E 138°44'612.1
2018-Jan-19 04:30N 34°44' E 138°41'613.0
2018-Jan-19 04:00N 34°50' E 138°39'713.1
2018-Jan-19 03:30N 34°56' E 138°36'612.7
2018-Jan-19 03:00N 35°01' E 138°32'2 3.7
2018-Jan-19 02:30N 35°02' E 138°30'0 0.0
2018-Jan-19 02:00N 35°02' E 138°30'0 0.0
2018-Jan-19 01:30N 35°02' E 138°30'0 0.0
2018-Jan-19 01:00N 35°02' E 138°30'0 0.0
2018-Jan-19 00:30N 35°02' E 138°30'0 0.0
2018-Jan-19 00:00N 35°02' E 138°30'0 0.0
2018-Jan-18 23:30N 35°02' E 138°30'1 1.4
2018-Jan-18 23:00N 35°02' E 138°31'1 1.9
2018-Jan-18 22:30N 35°02' E 138°32'0 0.0
2018-Jan-18 22:00N 35°02' E 138°32'0 0.0
2018-Jan-18 21:30N 35°02' E 138°32'0 0.0
2018-Jan-18 21:00N 35°02' E 138°32'0 0.0
2018-Jan-18 20:30N 35°02' E 138°32'0 0.2
2018-Jan-18 20:00N 35°02' E 138°32'5 9.3
2018-Jan-18 19:30N 34°58' E 138°35'712.6
2018-Jan-18 18:59N 34°52' E 138°38'713.0
2018-Jan-18 18:28N 34°46' E 138°41'612.8
2018-Jan-18 18:00N 34°40' E 138°43'612.0
2018-Jan-18 17:29N 34°36' E 138°48'611.7
2018-Jan-18 17:00N 34°36' E 138°55'611.9
2018-Jan-18 16:27N 34°40' E 139°01'712.3
2018-Jan-18 15:51N 34°46' E 139°07'711.9
2018-Jan-18 15:17N 34°51' E 139°12'412.5
2018-Jan-18 15:00N 34°54' E 139°14'612.1
2018-Jan-18 14:30N 34°58' E 139°20'611.7
2018-Jan-18 14:00N 35°01' E 139°26'611.8
2018-Jan-18 13:30N 35°03' E 139°33'612.1
2018-Jan-18 13:00N 35°06' E 139°39'612.4
2018-Jan-18 12:30N 35°10' E 139°44'611.6
2018-Jan-18 12:00N 35°16' E 139°46'713.6
2018-Jan-18 11:30N 35°22' E 139°42'612.7
2018-Jan-18 11:00N 35°27' E 139°47'713.2
2018-Jan-18 10:28N 35°31' E 139°54'511.5
2018-Jan-18 10:00N 35°30' E 140°01'1 1.2
2018-Jan-18 09:03N 35°30' E 140°02'0 0.0
2018-Jan-18 05:09N 35°30' E 140°02'0 0.0
2018-Jan-18 04:45N 35°30' E 140°02'0 0.0
2018-Jan-18 04:24N 35°30' E 140°02'0 0.0
2018-Jan-18 03:57N 35°30' E 140°02'0 0.0
2018-Jan-18 03:21N 35°30' E 140°02'2 4.9
2018-Jan-18 03:00N 35°31' E 140°00'5 9.5
2018-Jan-18 02:30N 35°35' E 139°59'5 9.0
2018-Jan-18 01:54N 35°40' E 139°57'0 0.0
2018-Jan-18 01:29N 35°40' E 139°57'0 0.0
2018-Jan-18 00:55N 35°40' E 139°57'0 0.0
2018-Jan-17 23:43N 35°40' E 139°57'  

Dump ship's entire track history